createdAt,value
2022-12-14T00:02:03.095Z,87.40
2022-12-14T00:07:04.888Z,87.99
2022-12-14T00:12:08.788Z,88.63
2022-12-14T00:17:10.504Z,89.11
2022-12-14T00:22:12.205Z,89.04
2022-12-14T00:27:13.866Z,89.67
2022-12-14T00:32:15.514Z,90.12
2022-12-14T00:37:17.155Z,89.23
2022-12-14T00:42:18.808Z,90.57
2022-12-14T00:47:20.433Z,91.07
2022-12-14T00:52:22.107Z,91.62
2022-12-14T00:57:23.834Z,90.53
2022-12-14T01:02:25.662Z,90.60
2022-12-14T01:07:27.478Z,90.54
2022-12-14T01:12:29.264Z,90.58
2022-12-14T01:17:30.904Z,90.62
2022-12-14T01:22:32.609Z,90.80
2022-12-14T01:27:34.359Z,90.50
2022-12-14T01:32:36.054Z,90.16
2022-12-14T01:37:37.731Z,90.84
2022-12-14T01:42:39.432Z,91.49
2022-12-14T01:47:44.339Z,88.83
2022-12-14T01:52:49.531Z,88.88
2022-12-14T01:57:57.144Z,88.51
2022-12-14T02:03:07.753Z,88.47
2022-12-14T02:08:09.847Z,88.87
2022-12-14T02:13:22.859Z,90.16
2022-12-14T02:18:27.586Z,91.16
2022-12-14T02:23:50.528Z,89.72
2022-12-14T02:29:10.771Z,89.70
2022-12-14T02:34:45.555Z,89.21
2022-12-14T02:40:07.374Z,89.26
2022-12-14T02:45:32.180Z,88.64
2022-12-14T02:50:37.885Z,88.21
2022-12-14T02:55:46.073Z,88.74
2022-12-14T03:00:49.463Z,88.74
2022-12-14T03:05:59.626Z,88.27
2022-12-14T03:11:06.623Z,88.24
2022-12-14T03:16:16.742Z,88.76
2022-12-14T03:21:24.589Z,87.73
2022-12-14T03:26:45.621Z,87.58
2022-12-14T03:31:55.067Z,86.82
2022-12-14T03:37:11.814Z,86.30
2022-12-14T03:42:23.574Z,85.84
2022-12-14T03:47:40.040Z,87.00
2022-12-14T03:52:56.923Z,85.74
2022-12-14T03:58:39.318Z,86.77
2022-12-14T04:03:51.428Z,86.88
2022-12-14T04:09:12.223Z,85.88
2022-12-14T04:14:38.232Z,85.49
2022-12-14T04:19:50.878Z,85.23
2022-12-14T04:25:34.583Z,86.67
2022-12-14T04:30:39.535Z,85.88
2022-12-14T04:35:42.516Z,85.55
2022-12-14T04:40:58.899Z,85.94
2022-12-14T04:46:14.926Z,86.65
2022-12-14T04:51:33.698Z,86.17
2022-12-14T04:56:53.161Z,86.13
2022-12-14T05:01:54.856Z,86.53
2022-12-14T05:07:17.592Z,85.47
2022-12-14T05:12:34.158Z,85.17
2022-12-14T05:17:40.560Z,85.50
2022-12-14T05:22:43.963Z,85.12
2022-12-14T05:27:46.630Z,85.54
2022-12-14T05:32:48.539Z,84.88
2022-12-14T05:37:50.226Z,85.40
2022-12-14T05:42:55.750Z,86.11
2022-12-14T05:47:57.720Z,85.91
2022-12-14T05:52:59.346Z,84.76
2022-12-14T05:58:01.479Z,84.31
2022-12-14T06:03:03.177Z,85.32
2022-12-14T06:08:05.059Z,85.10
2022-12-14T06:13:06.767Z,84.95
2022-12-14T06:18:08.471Z,84.17
2022-12-14T06:23:10.288Z,84.08
2022-12-14T06:28:11.975Z,83.34
2022-12-14T06:33:13.956Z,83.29
2022-12-14T06:38:16.491Z,84.97
2022-12-14T06:43:18.274Z,85.80
2022-12-14T06:48:20.119Z,84.05
2022-12-14T06:53:21.873Z,83.31
2022-12-14T06:58:25.756Z,82.61
2022-12-14T07:03:32.108Z,82.97
2022-12-14T07:08:36.281Z,83.03
2022-12-14T07:13:39.086Z,82.83
2022-12-14T07:18:40.735Z,82.77
2022-12-14T07:23:43.861Z,82.21
2022-12-14T07:28:45.762Z,83.69
2022-12-14T07:33:47.870Z,83.21
2022-12-14T07:38:50.720Z,82.18
2022-12-14T07:43:54.727Z,81.25
2022-12-14T07:48:57.794Z,81.47
2022-12-14T07:54:01.774Z,81.55
2022-12-14T07:59:06.675Z,81.68
2022-12-14T08:04:14.970Z,80.72
2022-12-14T08:09:17.515Z,80.33
2022-12-14T08:14:19.365Z,81.53
2022-12-14T08:19:21.193Z,80.61
2022-12-14T08:24:22.913Z,80.05
2022-12-14T08:29:24.606Z,80.70
2022-12-14T08:34:26.183Z,80.45
2022-12-14T08:39:27.842Z,79.89
2022-12-14T08:44:29.471Z,80.04
2022-12-14T08:49:32.582Z,79.86
2022-12-14T08:54:35.477Z,79.99
2022-12-14T09:00:00.697Z,79.11
2022-12-14T09:04:58.808Z,79.42
2022-12-14T09:10:00.441Z,79.10
2022-12-14T09:15:02.283Z,78.57
2022-12-14T09:20:04.987Z,77.57
2022-12-14T09:25:06.957Z,77.54
2022-12-14T09:30:08.969Z,78.71
2022-12-14T09:35:10.607Z,77.13
2022-12-14T09:40:13.645Z,78.00
2022-12-14T09:45:24.246Z,77.47
2022-12-14T09:50:27.155Z,78.75
2022-12-14T09:55:43.417Z,78.35
2022-12-14T10:00:53.556Z,77.47
2022-12-14T10:06:11.553Z,76.91
2022-12-14T10:11:31.349Z,76.19
2022-12-14T10:16:56.708Z,76.92
2022-12-14T10:22:06.875Z,77.37
2022-12-14T10:27:11.514Z,77.35
2022-12-14T10:32:29.663Z,74.34
2022-12-14T10:37:42.637Z,73.59
2022-12-14T10:42:44.239Z,73.87
2022-12-14T10:47:56.999Z,72.08
2022-12-14T10:53:00.017Z,72.45
2022-12-14T10:58:01.783Z,71.52
2022-12-14T11:03:06.884Z,71.62
2022-12-14T11:08:10.454Z,71.60
2022-12-14T11:13:20.980Z,71.94
2022-12-14T11:18:31.176Z,71.17
2022-12-14T11:23:47.362Z,71.15
2022-12-14T11:28:52.290Z,72.31
2022-12-14T11:33:56.882Z,70.25
2022-12-14T11:39:01.203Z,71.61
2022-12-14T11:44:15.484Z,72.92
2022-12-14T11:49:35.132Z,72.54
2022-12-14T11:54:39.932Z,71.65
2022-12-14T11:59:51.024Z,72.09
2022-12-14T12:05:04.832Z,72.05
2022-12-14T12:10:09.517Z,71.37
2022-12-14T12:15:17.468Z,72.87
2022-12-14T12:20:53.698Z,73.54
2022-12-14T12:25:58.613Z,72.95
2022-12-14T12:31:10.654Z,71.93
2022-12-14T12:36:20.449Z,72.76
2022-12-14T12:41:44.627Z,72.06
2022-12-14T12:47:23.426Z,72.78
2022-12-14T12:52:28.082Z,72.53
2022-12-14T12:57:42.092Z,71.75
2022-12-14T13:02:50.374Z,72.51
2022-12-14T13:07:57.424Z,73.73
2022-12-14T13:13:17.028Z,73.38
2022-12-14T13:18:56.051Z,73.71
2022-12-14T13:23:47.333Z,74.13
2022-12-14T13:29:09.041Z,74.72
2022-12-14T13:34:29.140Z,74.54
2022-12-14T13:39:56.091Z,74.47
2022-12-14T13:45:03.127Z,73.66
2022-12-14T13:50:38.505Z,73.40
2022-12-14T13:55:34.278Z,75.10
2022-12-14T14:00:45.253Z,74.45
2022-12-14T14:05:46.939Z,75.57
2022-12-14T14:10:54.114Z,76.23
2022-12-14T14:16:27.574Z,75.12
2022-12-14T14:21:58.793Z,75.03
2022-12-14T14:27:17.244Z,76.49
2022-12-14T14:32:33.624Z,78.69
2022-12-14T14:37:38.721Z,77.95
2022-12-14T14:42:49.744Z,77.35
2022-12-14T14:47:56.977Z,77.74
2022-12-14T14:53:18.269Z,79.05
2022-12-14T14:58:27.523Z,79.76
2022-12-14T15:03:55.665Z,78.75
2022-12-14T15:09:03.710Z,78.35
2022-12-14T15:14:16.074Z,79.33
2022-12-14T15:19:27.874Z,79.83
2022-12-14T15:24:37.443Z,76.92
2022-12-14T15:29:39.232Z,79.00
2022-12-14T15:34:52.043Z,77.92
2022-12-14T15:40:11.992Z,78.27
2022-12-14T15:45:18.491Z,78.96
2022-12-14T15:50:32.719Z,79.01
2022-12-14T15:55:41.935Z,80.59
2022-12-14T16:00:48.144Z,81.31
2022-12-14T16:05:50.379Z,80.63
2022-12-14T16:10:55.835Z,82.06
2022-12-14T16:16:00.507Z,82.65
2022-12-14T16:21:04.067Z,83.28
2022-12-14T16:26:14.783Z,83.79
2022-12-14T16:31:21.986Z,82.33
2022-12-14T16:36:25.578Z,82.81
2022-12-14T16:41:41.025Z,83.83
2022-12-14T16:47:03.425Z,83.66
2022-12-14T16:52:19.888Z,84.44
2022-12-14T16:57:24.156Z,84.47
2022-12-14T17:02:30.865Z,85.15
2022-12-14T17:07:33.492Z,86.05
2022-12-14T17:12:35.164Z,87.42
2022-12-14T17:17:36.922Z,86.24
2022-12-14T17:22:38.651Z,87.27
2022-12-14T17:27:41.137Z,86.94
2022-12-14T17:32:43.516Z,87.32
2022-12-14T17:37:45.242Z,87.10
2022-12-14T17:42:52.986Z,86.96
2022-12-14T17:47:55.256Z,88.66
2022-12-14T17:52:57.043Z,88.70
2022-12-14T17:58:00.103Z,87.97
2022-12-14T18:03:03.171Z,88.87
2022-12-14T18:08:05.229Z,88.81
2022-12-14T18:13:07.218Z,89.44
2022-12-14T18:18:09.067Z,89.51
2022-12-14T18:23:17.943Z,87.48
2022-12-14T18:28:19.942Z,88.06
2022-12-14T18:33:24.164Z,89.18
2022-12-14T18:38:26.553Z,89.49
2022-12-14T18:43:29.019Z,90.11
2022-12-14T18:48:31.038Z,90.80
2022-12-14T18:53:33.873Z,90.14
2022-12-14T18:58:36.245Z,88.92
2022-12-14T19:03:38.024Z,86.66
2022-12-14T19:08:41.347Z,88.35
2022-12-14T19:13:45.422Z,87.12
2022-12-14T19:18:47.040Z,86.24
2022-12-14T19:23:48.645Z,88.06
2022-12-14T19:28:50.343Z,88.13
2022-12-14T19:33:51.980Z,85.54
2022-12-14T19:38:53.655Z,85.38
2022-12-14T19:43:58.735Z,85.65
2022-12-14T19:49:00.962Z,85.27
2022-12-14T19:54:03.827Z,84.60
2022-12-14T19:59:05.501Z,86.77
2022-12-14T20:04:07.240Z,87.78
2022-12-14T20:09:09.979Z,87.33
2022-12-14T20:14:12.923Z,87.62
2022-12-14T20:19:14.690Z,88.58
2022-12-14T20:24:17.437Z,87.92
2022-12-14T20:29:19.161Z,88.74
2022-12-14T20:34:21.887Z,89.50
2022-12-14T20:39:23.907Z,89.83
2022-12-14T20:44:26.068Z,90.42
2022-12-14T20:49:30.110Z,90.24
2022-12-14T20:54:32.133Z,90.01
2022-12-14T20:59:34.130Z,89.72
2022-12-14T21:04:36.008Z,90.31
2022-12-14T21:09:37.962Z,90.66
2022-12-14T21:14:42.567Z,90.67
2022-12-14T21:19:44.636Z,90.49
2022-12-14T21:25:04.224Z,91.17
2022-12-14T21:30:10.011Z,91.24
2022-12-14T21:35:13.229Z,90.92
2022-12-14T21:40:36.894Z,90.07
2022-12-14T21:45:38.615Z,89.54
2022-12-14T21:50:42.410Z,90.86
2022-12-14T21:55:51.245Z,91.00
2022-12-14T22:00:52.954Z,91.40
2022-12-14T22:05:54.594Z,91.76
2022-12-14T22:11:02.529Z,91.59
2022-12-14T22:16:06.103Z,90.26
2022-12-14T22:21:07.910Z,91.26
2022-12-14T22:26:09.776Z,89.94
2022-12-14T22:31:11.653Z,89.48
2022-12-14T22:36:15.037Z,89.47
2022-12-14T22:41:18.360Z,90.74
2022-12-14T22:46:20.509Z,91.19
2022-12-14T22:51:23.176Z,91.34
2022-12-14T22:56:34.478Z,91.14
2022-12-14T23:01:37.541Z,92.08
2022-12-14T23:06:40.856Z,91.12
2022-12-14T23:12:01.020Z,91.74
2022-12-14T23:17:21.627Z,91.47
2022-12-14T23:22:41.994Z,91.86
2022-12-14T23:28:02.478Z,91.80
2022-12-14T23:33:22.579Z,91.58
2022-12-14T23:38:42.550Z,91.12
2022-12-14T23:44:03.315Z,91.30
2022-12-14T23:49:23.752Z,89.34
2022-12-14T23:54:44.202Z,89.64
